Time;durP1;ratioP1;P1;durP2;ratioP2;P2;SDS_P1;SDS_P2;PMS_P1;PMS_P2;Temp;Humidity;BMP_temperature;BMP_pressure;BME280_temperature;BME280_humidity;BME280_pressure;Samples;Min_cycle;Max_cycle;Signal;HPM_P1;HPM_P2
2021/07/17 00:00:49;;;;;;;24.77;16.90;;;20.70;99.90;;;;;;5097158;28;20020;-82
2021/07/17 00:03:15;;;;;;;25.67;16.33;;;20.70;99.90;;;;;;5096988;28;20111;-82
2021/07/17 00:05:41;;;;;;;25.27;17.90;;;20.60;99.90;;;;;;5096785;28;20144;-82
2021/07/17 00:08:07;;;;;;;21.95;15.95;;;20.60;99.90;;;;;;5096651;28;20031;-82
2021/07/17 00:10:49;;;;;;;21.80;16.45;;;20.50;99.90;;;;;;5096702;28;20430;-82
2021/07/17 00:13:16;;;;;;;21.02;15.60;;;20.60;99.90;;;;;;5096620;28;20024;-82
2021/07/17 00:15:42;;;;;;;26.30;16.10;;;20.50;99.90;;;;;;5095714;28;20032;-83
2021/07/17 00:18:08;;;;;;;22.35;16.85;;;20.50;99.90;;;;;;5095150;28;20046;-82
2021/07/17 00:20:34;;;;;;;23.70;16.95;;;20.50;99.90;;;;;;5095194;28;20115;-82
2021/07/17 00:23:00;;;;;;;23.52;16.60;;;20.50;99.90;;;;;;5096275;28;20051;-82
2021/07/17 00:25:26;;;;;;;21.52;15.23;;;20.50;99.90;;;;;;5115319;28;20036;-83
2021/07/17 00:27:52;;;;;;;24.08;16.33;;;20.50;99.90;;;;;;5116752;28;20026;-82
2021/07/17 00:30:19;;;;;;;21.40;16.08;;;20.50;99.90;;;;;;5115359;28;20026;-82
2021/07/17 00:32:46;;;;;;;26.30;16.20;;;20.50;99.90;;;;;;5115159;28;20499;-82
2021/07/17 00:35:13;;;;;;;23.15;16.83;;;20.40;99.90;;;;;;5115193;27;20068;-82
2021/07/17 00:37:38;;;;;;;26.77;16.20;;;20.40;99.90;;;;;;5116485;28;20042;-83
2021/07/17 00:40:06;;;;;;;24.75;17.45;;;20.30;99.90;;;;;;5113232;28;20468;-84
2021/07/17 00:42:32;;;;;;;29.05;18.98;;;20.30;99.90;;;;;;5115119;28;20020;-83
2021/07/17 00:44:58;;;;;;;24.13;17.10;;;20.30;99.90;;;;;;5115070;28;20024;-82
2021/07/17 00:47:24;;;;;;;24.38;16.55;;;20.30;99.90;;;;;;5116372;28;20038;-82
2021/07/17 00:49:50;;;;;;;25.63;17.33;;;20.30;99.90;;;;;;5115248;28;20023;-83
2021/07/17 00:52:16;;;;;;;30.77;17.60;;;20.30;99.90;;;;;;5115119;28;20027;-84
2021/07/17 00:54:43;;;;;;;28.00;18.75;;;20.30;99.90;;;;;;5095916;28;20024;-83
2021/07/17 00:57:09;;;;;;;21.70;17.55;;;20.30;99.90;;;;;;5095768;28;20020;-83
2021/07/17 00:59:37;;;;;;;24.40;17.67;;;20.30;99.90;;;;;;5095678;28;20078;-83
2021/07/17 01:02:03;;;;;;;22.40;16.90;;;20.20;99.90;;;;;;5094338;28;20526;-83
2021/07/17 01:04:30;;;;;;;25.25;19.08;;;20.20;99.90;;;;;;5094106;28;20019;-83
2021/07/17 01:06:59;;;;;;;31.85;19.05;;;20.20;99.90;;;;;;5094646;28;20404;-83
2021/07/17 01:09:26;;;;;;;26.08;18.08;;;20.20;99.90;;;;;;5094944;28;20028;-83
2021/07/17 01:11:54;;;;;;;24.60;17.65;;;20.10;99.90;;;;;;5095831;28;20020;-82
2021/07/17 01:14:20;;;;;;;24.08;17.45;;;20.10;99.90;;;;;;5095309;28;20071;-83
2021/07/17 01:16:46;;;;;;;27.42;19.00;;;20.10;99.90;;;;;;5094180;28;20086;-83
2021/07/17 01:19:13;;;;;;;25.65;18.60;;;20.10;99.90;;;;;;5095315;28;20051;-82
2021/07/17 01:21:39;;;;;;;25.25;18.13;;;20.10;99.90;;;;;;5095156;28;20044;-82
2021/07/17 01:24:05;;;;;;;28.77;19.08;;;20.00;99.90;;;;;;5111023;28;20023;-82
2021/07/17 01:26:30;;;;;;;28.92;19.70;;;20.10;99.90;;;;;;5114307;28;20016;-83
2021/07/17 01:28:56;;;;;;;25.50;18.45;;;20.10;99.90;;;;;;5113824;28;20469;-82
2021/07/17 01:31:22;;;;;;;23.10;17.13;;;20.00;99.90;;;;;;5114516;28;20118;-82
2021/07/17 01:33:48;;;;;;;27.13;18.20;;;20.00;99.90;;;;;;5114049;28;20119;-83
2021/07/17 01:36:14;;;;;;;27.65;16.95;;;20.00;99.90;;;;;;5113940;28;20178;-83
2021/07/17 01:38:41;;;;;;;24.05;17.30;;;19.90;99.90;;;;;;5115391;28;20055;-83
2021/07/17 01:41:09;;;;;;;21.85;16.75;;;19.90;99.90;;;;;;5115535;28;20019;-83
2021/07/17 01:43:35;;;;;;;22.50;17.50;;;19.90;99.90;;;;;;5114010;28;20110;-83
2021/07/17 01:46:01;;;;;;;20.02;15.73;;;19.90;99.90;;;;;;5113943;28;20103;-83
2021/07/17 01:48:26;;;;;;;22.65;15.70;;;19.90;99.90;;;;;;5115117;28;20425;-83
2021/07/17 01:50:53;;;;;;;24.08;16.15;;;19.90;99.90;;;;;;5115150;28;20085;-83
2021/07/17 01:53:19;;;;;;;23.15;16.45;;;19.90;99.90;;;;;;5108927;28;20464;-83
2021/07/17 01:55:44;;;;;;;22.33;17.20;;;19.90;99.90;;;;;;5115022;28;20076;-83
2021/07/17 01:58:11;;;;;;;23.20;16.92;;;19.90;99.90;;;;;;5113571;28;20020;-83
2021/07/17 02:00:38;;;;;;;19.25;14.20;;;19.90;99.90;;;;;;5106046;28;20030;-83
2021/07/17 02:03:07;;;;;;;22.85;16.52;;;19.90;99.90;;;;;;5094420;28;20020;-84
2021/07/17 02:05:33;;;;;;;24.67;17.42;;;19.90;99.90;;;;;;5094515;28;20027;-82
2021/07/17 02:07:59;;;;;;;22.40;15.43;;;19.90;99.90;;;;;;5094418;28;20359;-83
2021/07/17 02:10:28;;;;;;;25.58;18.85;;;19.90;99.90;;;;;;5094569;28;20020;-83
2021/07/17 02:13:05;;;;;;;26.17;19.33;;;19.90;99.90;;;;;;5094336;28;20385;-83
2021/07/17 02:15:41;;;;;;;24.40;19.13;;;19.80;99.90;;;;;;5093965;28;20075;-83
2021/07/17 02:18:07;;;;;;;21.48;16.85;;;19.90;99.90;;;;;;5094214;28;20035;-83
2021/07/17 02:20:33;;;;;;;22.45;16.90;;;19.80;99.90;;;;;;5094432;28;20024;-83
2021/07/17 02:22:59;;;;;;;27.23;19.00;;;19.80;99.90;;;;;;5100143;28;20144;-83
2021/07/17 02:25:25;;;;;;;23.05;17.25;;;19.80;99.90;;;;;;5113115;28;20069;-83
2021/07/17 02:27:51;;;;;;;23.75;17.27;;;19.80;99.90;;;;;;5114720;28;20027;-83
2021/07/17 02:30:17;;;;;;;26.60;18.50;;;19.80;99.90;;;;;;5113002;28;20385;-82
2021/07/17 02:32:43;;;;;;;24.48;18.15;;;19.90;99.90;;;;;;5114134;28;20039;-82
2021/07/17 02:35:09;;;;;;;22.40;16.42;;;19.90;99.90;;;;;;5113303;28;20096;-82
2021/07/17 02:37:35;;;;;;;28.92;19.80;;;19.90;99.90;;;;;;5112971;28;20027;-83
2021/07/17 02:40:01;;;;;;;30.00;20.58;;;20.00;99.90;;;;;;5114063;28;20080;-82
2021/07/17 02:42:26;;;;;;;26.45;18.50;;;20.00;99.90;;;;;;5112826;28;20064;-82
2021/07/17 02:44:52;;;;;;;20.95;15.70;;;20.00;99.90;;;;;;5114073;28;20023;-83
2021/07/17 02:47:18;;;;;;;27.83;18.85;;;20.00;99.90;;;;;;5112709;28;20019;-82
2021/07/17 02:49:45;;;;;;;25.13;18.63;;;20.00;99.90;;;;;;5113997;28;20020;-83
2021/07/17 02:52:10;;;;;;;24.05;17.52;;;20.00;99.90;;;;;;5113398;28;20049;-82
2021/07/17 02:54:36;;;;;;;22.52;17.35;;;19.80;99.90;;;;;;5112454;28;20035;-82
2021/07/17 02:57:02;;;;;;;24.92;17.55;;;19.80;99.90;;;;;;5112766;28;20020;-83
2021/07/17 02:59:27;;;;;;;26.58;17.65;;;19.80;99.90;;;;;;5112397;28;20050;-82
2021/07/17 03:01:53;;;;;;;25.52;18.52;;;19.80;99.90;;;;;;5112620;28;20536;-83
2021/07/17 03:04:19;;;;;;;30.70;17.67;;;19.80;99.90;;;;;;5095936;28;20020;-82
2021/07/17 03:06:44;;;;;;;25.73;19.45;;;19.90;99.90;;;;;;5093395;28;20019;-83
2021/07/17 03:09:10;;;;;;;27.20;18.77;;;19.90;99.90;;;;;;5093094;28;20020;-83
2021/07/17 03:11:36;;;;;;;34.72;19.77;;;19.90;99.90;;;;;;5093259;28;20031;-83
2021/07/17 03:14:03;;;;;;;29.05;20.88;;;20.00;99.90;;;;;;5092098;28;20024;-83
2021/07/17 03:16:30;;;;;;;28.00;20.58;;;20.00;99.90;;;;;;5108584;28;20022;-83
2021/07/17 03:18:57;;;;;;;29.38;21.15;;;20.00;99.90;;;;;;5112313;28;20066;-83
2021/07/17 03:21:22;;;;;;;26.77;21.42;;;20.00;99.90;;;;;;5102752;28;20031;-83
2021/07/17 03:23:48;;;;;;;31.42;20.90;;;20.00;99.90;;;;;;5092134;28;20024;-82
2021/07/17 03:26:14;;;;;;;29.13;20.02;;;20.00;99.90;;;;;;5091607;28;20422;-81
2021/07/17 03:28:40;;;;;;;29.10;21.45;;;20.00;99.90;;;;;;5093936;28;20058;-82
2021/07/17 03:31:06;;;;;;;28.60;21.25;;;20.00;99.90;;;;;;5091682;28;20035;-83
2021/07/17 03:33:32;;;;;;;29.65;19.17;;;20.00;99.90;;;;;;5091636;28;20423;-82
2021/07/17 03:35:58;;;;;;;29.45;19.73;;;20.00;99.90;;;;;;5091698;28;20523;-82
2021/07/17 03:38:24;;;;;;;25.30;18.00;;;20.10;99.90;;;;;;5092858;28;20103;-81
2021/07/17 03:40:50;;;;;;;25.15;17.60;;;20.10;99.90;;;;;;5091649;28;20032;-82
2021/07/17 03:43:16;;;;;;;24.88;17.35;;;20.20;99.90;;;;;;5091564;28;20023;-82
2021/07/17 03:45:42;;;;;;;22.73;16.27;;;20.30;99.90;;;;;;5091579;28;20178;-82
2021/07/17 03:48:08;;;;;;;20.67;15.55;;;20.40;99.90;;;;;;5092700;28;20109;-82
2021/07/17 03:50:34;;;;;;;22.52;15.77;;;20.40;99.90;;;;;;5091508;28;20154;-82
2021/07/17 03:53:00;;;;;;;17.45;14.55;;;20.60;99.90;;;;;;5091501;28;20016;-82
2021/07/17 03:55:25;;;;;;;20.85;15.55;;;20.70;99.90;;;;;;5092704;28;20043;-82
2021/07/17 03:57:51;;;;;;;20.52;15.15;;;20.70;99.90;;;;;;5091413;28;20023;-82
2021/07/17 04:00:17;;;;;;;23.15;16.88;;;20.80;99.90;;;;;;5092709;28;20028;-82
2021/07/17 04:02:44;;;;;;;21.85;14.90;;;20.90;99.90;;;;;;5091397;28;20020;-82
2021/07/17 04:05:11;;;;;;;19.92;14.45;;;21.00;99.90;;;;;;5091366;28;20020;-82
2021/07/17 04:07:37;;;;;;;22.67;14.00;;;21.10;99.90;;;;;;5091405;28;20039;-82
2021/07/17 04:10:05;;;;;;;15.98;12.23;;;21.20;99.90;;;;;;5091236;28;20020;-82
2021/07/17 04:12:31;;;;;;;15.63;11.70;;;21.40;99.90;;;;;;5091207;28;20032;-82
2021/07/17 04:14:57;;;;;;;19.27;12.70;;;21.60;99.90;;;;;;5092333;28;20078;-82
2021/07/17 04:17:22;;;;;;;13.75;11.40;;;21.80;99.90;;;;;;5092485;28;20019;-82
2021/07/17 04:19:48;;;;;;;14.82;11.63;;;21.90;99.90;;;;;;5091506;28;20024;-83
2021/07/17 04:22:14;;;;;;;15.10;10.60;;;21.90;99.90;;;;;;5092531;28;20024;-82
2021/07/17 04:24:40;;;;;;;15.30;9.60;;;21.90;99.90;;;;;;5092302;28;20068;-82
2021/07/17 04:27:06;;;;;;;17.13;9.88;;;21.90;99.90;;;;;;5091006;28;20016;-83
2021/07/17 04:29:31;;;;;;;12.23;9.50;;;21.80;99.90;;;;;;5091091;28;20020;-82
2021/07/17 04:31:57;;;;;;;12.18;9.18;;;21.90;99.90;;;;;;5091166;28;20093;-81
2021/07/17 04:34:23;;;;;;;12.27;8.63;;;22.10;99.90;;;;;;5092105;28;20059;-82
2021/07/17 04:36:49;;;;;;;15.43;9.80;;;22.00;99.90;;;;;;5091093;28;20048;-82
2021/07/17 04:39:15;;;;;;;13.10;9.52;;;22.10;99.90;;;;;;5092187;28;20096;-82
2021/07/17 04:41:41;;;;;;;18.88;10.40;;;22.00;99.90;;;;;;5091012;28;20524;-83
2021/07/17 04:44:06;;;;;;;12.07;8.98;;;22.10;99.90;;;;;;5107557;28;20370;-82
2021/07/17 04:46:32;;;;;;;13.30;8.93;;;22.10;99.90;;;;;;5114966;28;20024;-82
2021/07/17 04:48:58;;;;;;;12.57;8.70;;;22.20;99.90;;;;;;5116373;28;20027;-82
2021/07/17 04:51:24;;;;;;;13.95;10.18;;;22.30;99.90;;;;;;5115913;28;20481;-82
2021/07/17 04:53:50;;;;;;;12.43;10.07;;;22.50;99.90;;;;;;5116109;28;20484;-82
2021/07/17 04:56:15;;;;;;;15.82;10.65;;;22.60;99.90;;;;;;5116151;28;20051;-84
2021/07/17 04:58:41;;;;;;;18.52;10.43;;;22.70;99.90;;;;;;5114834;28;20473;-81
2021/07/17 05:01:07;;;;;;;14.77;10.88;;;22.60;99.90;;;;;;5114785;28;20412;-82
2021/07/17 05:03:33;;;;;;;15.40;10.40;;;22.50;99.90;;;;;;5115047;28;20453;-82
2021/07/17 05:05:59;;;;;;;13.23;9.90;;;22.40;99.90;;;;;;5115106;28;20027;-83
2021/07/17 05:08:24;;;;;;;15.10;10.23;;;22.40;99.90;;;;;;5115867;28;20019;-82
2021/07/17 05:10:50;;;;;;;25.67;9.95;;;22.40;99.90;;;;;;5114572;28;20024;-82
2021/07/17 05:13:18;;;;;;;16.15;9.15;;;22.30;99.90;;;;;;5110194;28;20027;-82
2021/07/17 05:15:44;;;;;;;15.40;9.40;;;22.30;99.90;;;;;;5094119;28;20036;-81
2021/07/17 05:18:12;;;;;;;14.23;8.60;;;22.40;99.90;;;;;;5106085;28;20019;-82
2021/07/17 05:20:39;;;;;;;12.27;9.07;;;22.50;99.90;;;;;;5115740;28;20157;-82
2021/07/17 05:23:05;;;;;;;9.60;8.40;;;22.60;99.90;;;;;;5114625;28;20111;-82
2021/07/17 05:25:31;;;;;;;13.55;8.93;;;22.60;99.90;;;;;;5115547;28;20048;-83
2021/07/17 05:27:56;;;;;;;11.85;8.77;;;22.60;99.90;;;;;;5097264;27;20035;-82
2021/07/17 05:30:22;;;;;;;16.00;9.57;;;22.50;99.90;;;;;;5095122;28;20032;-82
2021/07/17 05:32:48;;;;;;;12.38;8.57;;;22.40;99.90;;;;;;5095224;28;20119;-83
2021/07/17 05:35:14;;;;;;;11.18;8.63;;;22.40;99.90;;;;;;5094888;28;20042;-83
2021/07/17 05:37:40;;;;;;;13.10;9.13;;;22.50;99.90;;;;;;5095011;28;20027;-83
2021/07/17 05:40:06;;;;;;;17.42;9.20;;;22.50;99.90;;;;;;5093437;28;20031;-82
2021/07/17 05:42:33;;;;;;;13.02;9.18;;;22.80;99.90;;;;;;5093775;28;20035;-83
2021/07/17 05:44:59;;;;;;;10.70;9.18;;;22.70;99.90;;;;;;5093554;28;20024;-83
2021/07/17 05:47:25;;;;;;;11.73;8.55;;;22.70;99.90;;;;;;5093477;28;20023;-82
2021/07/17 05:49:51;;;;;;;10.70;8.10;;;22.70;99.90;;;;;;5095583;28;20024;-82
2021/07/17 05:52:16;;;;;;;12.52;9.05;;;22.80;99.90;;;;;;5103318;28;20075;-83
2021/07/17 05:54:42;;;;;;;11.52;9.05;;;22.80;99.90;;;;;;5100685;28;20035;-82
2021/07/17 05:57:08;;;;;;;15.63;9.27;;;22.80;99.90;;;;;;5092669;28;20020;-83
2021/07/17 05:59:35;;;;;;;11.50;8.00;;;22.80;99.90;;;;;;5093188;28;20050;-84
2021/07/17 06:02:01;;;;;;;13.63;9.00;;;22.80;99.90;;;;;;5094654;28;20055;-83
2021/07/17 06:04:26;;;;;;;13.45;9.13;;;22.90;99.90;;;;;;5093223;28;20074;-82
2021/07/17 06:06:52;;;;;;;20.50;10.07;;;22.90;99.90;;;;;;5093450;28;20491;-82
2021/07/17 06:09:17;;;;;;;14.48;9.18;;;22.90;99.90;;;;;;5094286;28;20032;-81
2021/07/17 06:11:43;;;;;;;11.35;8.80;;;22.80;99.90;;;;;;5093075;28;20370;-82
2021/07/17 06:14:09;;;;;;;15.07;9.20;;;22.80;99.90;;;;;;5092915;28;20132;-82
2021/07/17 06:16:34;;;;;;;13.98;8.45;;;22.90;99.90;;;;;;5094281;28;20366;-82
2021/07/17 06:19:00;;;;;;;12.45;8.02;;;23.00;99.90;;;;;;5094221;28;20083;-82
2021/07/17 06:21:26;;;;;;;13.85;9.85;;;23.20;99.90;;;;;;5092774;28;20028;-81
2021/07/17 06:23:51;;;;;;;17.67;10.52;;;23.10;99.90;;;;;;5094065;28;20020;-81
2021/07/17 06:26:17;;;;;;;15.73;10.30;;;23.10;99.90;;;;;;5102889;28;20016;-82
2021/07/17 06:28:43;;;;;;;11.80;8.60;;;23.00;99.90;;;;;;5102655;28;20032;-82
2021/07/17 06:31:08;;;;;;;9.82;8.50;;;23.00;99.90;;;;;;5110796;28;20020;-84
2021/07/17 06:33:34;;;;;;;13.95;8.77;;;23.10;99.90;;;;;;5112774;28;20488;-82
2021/07/17 06:36:00;;;;;;;25.42;9.23;;;23.10;99.90;;;;;;5110859;28;20027;-82
2021/07/17 06:38:26;;;;;;;11.00;8.18;;;23.40;99.90;;;;;;5112192;28;20028;-83
2021/07/17 06:40:51;;;;;;;13.18;9.30;;;23.50;99.90;;;;;;5106568;28;20012;-83
2021/07/17 06:43:17;;;;;;;12.25;9.07;;;23.70;99.90;;;;;;5109485;28;20058;-83
2021/07/17 06:45:42;;;;;;;12.75;9.05;;;23.70;99.90;;;;;;5104815;28;20068;-82
2021/07/17 06:48:09;;;;;;;14.07;9.80;;;23.90;99.90;;;;;;5107774;28;20370;-82
2021/07/17 06:50:35;;;;;;;10.00;7.80;;;23.90;99.90;;;;;;5102047;28;20016;-83
2021/07/17 06:53:00;;;;;;;16.05;9.77;;;24.10;99.90;;;;;;5107813;28;20032;-82
2021/07/17 06:55:26;;;;;;;12.20;8.80;;;24.00;99.90;;;;;;5103016;28;20162;-83
2021/07/17 06:57:52;;;;;;;9.50;7.82;;;24.10;99.90;;;;;;5110197;28;20050;-83
2021/07/17 07:00:19;;;;;;;12.15;8.18;;;24.30;99.90;;;;;;5109596;28;20023;-83
2021/07/17 07:02:44;;;;;;;14.55;8.55;;;24.50;99.90;;;;;;5109227;28;20023;-83
2021/07/17 07:05:11;;;;;;;8.32;7.25;;;24.80;96.00;;;;;;5112167;28;20072;-83
2021/07/17 07:07:37;;;;;;;11.07;8.98;;;25.10;95.80;;;;;;5110365;28;20035;-83
2021/07/17 07:10:09;;;;;;;14.85;8.75;;;25.20;97.00;;;;;;5105371;28;20488;-83
2021/07/17 07:12:39;;;;;;;10.90;7.95;;;25.20;94.30;;;;;;5103657;28;20757;-82
2021/07/17 07:15:09;;;;;;;11.30;8.57;;;25.20;95.50;;;;;;5108237;28;20028;-82
2021/07/17 07:17:36;;;;;;;16.38;9.55;;;24.90;95.00;;;;;;5105844;28;20107;-81
2021/07/17 07:20:03;;;;;;;10.13;8.40;;;24.80;96.10;;;;;;5094328;28;20067;-82
2021/07/17 07:22:29;;;;;;;8.73;7.50;;;24.60;97.50;;;;;;5090396;28;20066;-82
2021/07/17 07:24:55;;;;;;;12.48;7.70;;;24.80;96.10;;;;;;5108705;28;20106;-83
2021/07/17 07:27:20;;;;;;;9.15;7.43;;;24.90;96.40;;;;;;5108586;28;20016;-82
2021/07/17 07:29:46;;;;;;;12.60;7.68;;;25.10;94.60;;;;;;5106741;28;20028;-81
2021/07/17 07:32:12;;;;;;;10.85;7.30;;;25.20;94.30;;;;;;5104596;28;20034;-84
2021/07/17 07:34:38;;;;;;;14.00;7.80;;;25.10;89.30;;;;;;5105291;28;20052;-82
2021/07/17 07:37:04;;;;;;;11.55;7.43;;;25.20;88.50;;;;;;5110954;28;20036;-81
2021/07/17 07:39:30;;;;;;;11.95;7.13;;;25.10;87.70;;;;;;5114234;27;20092;-82
2021/07/17 07:41:56;;;;;;;10.30;8.30;;;25.20;88.20;;;;;;5109985;28;20038;-82
2021/07/17 07:44:21;;;;;;;9.98;7.75;;;25.30;87.20;;;;;;5103655;28;20023;-82
2021/07/17 07:46:47;;;;;;;9.25;7.75;;;25.70;86.10;;;;;;5104404;28;20020;-83
2021/07/17 07:49:13;;;;;;;9.20;7.68;;;25.70;85.80;;;;;;5104701;28;20035;-84
2021/07/17 07:51:39;;;;;;;9.90;7.68;;;25.80;82.90;;;;;;5101261;28;20350;-82
2021/07/17 07:54:04;;;;;;;11.48;8.50;;;25.60;85.60;;;;;;5109425;28;20031;-83
2021/07/17 07:56:30;;;;;;;10.30;8.02;;;25.70;86.50;;;;;;5108755;28;20035;-82
2021/07/17 07:58:56;;;;;;;12.82;7.95;;;25.50;88.70;;;;;;5110268;28;20024;-82
2021/07/17 08:01:21;;;;;;;10.48;7.60;;;25.70;88.10;;;;;;5110940;28;20019;-84
2021/07/17 08:03:47;;;;;;;11.50;7.80;;;25.80;84.30;;;;;;5106861;28;20030;-82
2021/07/17 08:06:13;;;;;;;11.35;7.93;;;25.80;83.30;;;;;;5109892;28;20123;-84
2021/07/17 08:08:38;;;;;;;10.27;7.28;;;25.70;85.10;;;;;;5096697;28;20043;-84
2021/07/17 08:11:04;;;;;;;11.70;7.53;;;25.40;85.20;;;;;;5103754;28;20461;-83
2021/07/17 08:13:31;;;;;;;8.30;6.90;;;25.60;81.70;;;;;;5106057;28;20044;-83
2021/07/17 08:15:59;;;;;;;11.15;7.47;;;25.90;79.50;;;;;;5102372;28;20112;-83
2021/07/17 08:18:25;;;;;;;10.40;7.20;;;26.10;79.80;;;;;;5108385;28;20031;-82
2021/07/17 08:20:51;;;;;;;10.32;7.90;;;26.20;78.10;;;;;;5114466;27;20582;-83
2021/07/17 08:23:16;;;;;;;8.60;7.70;;;26.00;78.10;;;;;;5113110;28;20130;-80
2021/07/17 08:25:42;;;;;;;12.32;8.20;;;26.30;76.70;;;;;;5114507;28;20024;-80
2021/07/17 08:28:08;;;;;;;12.15;8.68;;;26.10;79.60;;;;;;5112571;28;20031;-80
2021/07/17 08:30:35;;;;;;;10.27;8.43;;;26.10;76.70;;;;;;5114659;28;20068;-80
2021/07/17 08:33:02;;;;;;;13.68;9.00;;;25.90;78.00;;;;;;5111572;28;20370;-80
2021/07/17 08:35:27;;;;;;;14.48;9.20;;;26.00;79.90;;;;;;5110757;28;20123;-80
2021/07/17 08:37:53;;;;;;;10.73;8.93;;;25.90;82.10;;;;;;5114663;28;20453;-80
2021/07/17 08:40:19;;;;;;;11.80;9.65;;;26.20;80.30;;;;;;5114451;28;20026;-80
2021/07/17 08:42:47;;;;;;;11.95;9.45;;;26.20;79.90;;;;;;5094822;28;20435;-80
2021/07/17 08:45:14;;;;;;;12.93;9.18;;;26.50;77.20;;;;;;5095847;28;20469;-80
2021/07/17 08:47:42;;;;;;;14.25;9.50;;;26.60;78.10;;;;;;5096015;28;20103;-80
2021/07/17 08:50:15;;;;;;;12.38;9.80;;;26.80;76.90;;;;;;5094596;28;20484;-82
2021/07/17 08:52:41;;;;;;;13.57;8.63;;;26.80;77.10;;;;;;5094570;28;20027;-81
2021/07/17 08:55:09;;;;;;;12.82;9.43;;;26.80;73.90;;;;;;5094113;28;20036;-86
2021/07/17 08:57:39;;;;;;;13.43;9.98;;;26.90;75.90;;;;;;5101078;28;20039;-81
2021/07/17 09:00:09;;;;;;;14.02;10.35;;;26.80;76.10;;;;;;5098452;28;20192;-81
2021/07/17 09:02:46;;;;;;;12.82;9.82;;;26.70;76.50;;;;;;5100961;28;20031;-81
2021/07/17 09:05:14;;;;;;;11.23;9.15;;;26.50;77.40;;;;;;5113453;28;20043;-80
2021/07/17 09:07:42;;;;;;;12.85;10.23;;;26.80;74.70;;;;;;5112996;28;20102;-82
2021/07/17 09:10:37;;;;;;;11.60;9.70;;;26.60;76.90;;;;;;5110168;28;20031;-81
2021/07/17 09:13:17;;;;;;;15.40;11.35;;;26.80;75.60;;;;;;5093961;28;20035;-81
2021/07/17 09:15:48;;;;;;;12.68;8.80;;;26.60;74.30;;;;;;5094000;28;20485;-80
2021/07/17 09:18:15;;;;;;;17.33;9.32;;;26.50;73.90;;;;;;5094080;28;20383;-80
2021/07/17 09:21:14;;;;;;;11.60;9.00;;;26.80;72.40;;;;;;5096541;28;20127;-84
2021/07/17 09:23:46;;;;;;;14.48;11.65;;;27.00;73.00;;;;;;5105920;28;20036;-79
2021/07/17 09:26:16;;;;;;;12.23;9.48;;;27.30;72.70;;;;;;5105499;28;20015;-83
2021/07/17 09:28:42;;;;;;;14.32;9.93;;;27.10;74.00;;;;;;5113411;28;20122;-82
2021/07/17 09:31:08;;;;;;;13.43;9.93;;;27.10;73.40;;;;;;5113460;28;20064;-82
2021/07/17 09:33:35;;;;;;;10.65;9.38;;;27.40;73.50;;;;;;5112968;28;20027;-82
2021/07/17 09:36:01;;;;;;;11.98;9.38;;;27.40;70.60;;;;;;5114676;28;20074;-83
2021/07/17 09:38:29;;;;;;;14.48;10.50;;;27.60;69.90;;;;;;5113463;28;20358;-81
2021/07/17 09:40:59;;;;;;;15.68;10.25;;;27.30;74.50;;;;;;5112938;28;20028;-81
2021/07/17 09:43:29;;;;;;;16.25;10.35;;;27.30;74.20;;;;;;5112515;28;20032;-82
2021/07/17 09:45:55;;;;;;;16.00;10.60;;;27.30;73.10;;;;;;5112847;28;20027;-81
2021/07/17 09:48:21;;;;;;;13.35;9.65;;;27.50;72.50;;;;;;5114347;28;20031;-82
2021/07/17 09:50:48;;;;;;;14.10;10.32;;;27.60;73.10;;;;;;5114491;28;20055;-82
2021/07/17 09:53:34;;;;;;;11.45;9.77;;;27.60;70.00;;;;;;5114536;28;20080;-81
2021/07/17 09:56:11;;;;;;;14.20;9.88;;;27.90;68.70;;;;;;5111984;28;20032;-80
2021/07/17 09:58:38;;;;;;;14.02;9.60;;;27.90;67.40;;;;;;5112935;28;20098;-81
2021/07/17 10:01:14;;;;;;;12.20;9.88;;;28.10;67.50;;;;;;5113209;28;20065;-81
2021/07/17 10:03:40;;;;;;;10.70;9.55;;;28.10;70.50;;;;;;5113345;27;20028;-81
2021/07/17 10:06:10;;;;;;;13.05;9.65;;;27.90;67.60;;;;;;5112831;28;20026;-82
2021/07/17 10:08:35;;;;;;;15.75;10.57;;;27.90;66.90;;;;;;5111791;28;20024;-82
2021/07/17 10:11:11;;;;;;;11.85;9.18;;;27.70;67.90;;;;;;5114495;28;20046;-81
2021/07/17 10:13:43;;;;;;;10.65;9.32;;;28.00;69.40;;;;;;5112719;28;20023;-81
2021/07/17 10:16:20;;;;;;;12.95;10.93;;;28.60;66.60;;;;;;5111974;28;20088;-81
2021/07/17 10:18:47;;;;;;;12.80;9.88;;;28.40;67.00;;;;;;5112148;28;20015;-81
2021/07/17 10:21:13;;;;;;;12.82;9.95;;;28.40;67.10;;;;;;5113765;28;20066;-81
2021/07/17 10:23:40;;;;;;;14.25;10.65;;;28.40;66.90;;;;;;5112571;28;20047;-82
2021/07/17 10:26:07;;;;;;;14.40;10.32;;;28.40;66.20;;;;;;5112610;28;20471;-83
2021/07/17 10:28:33;;;;;;;12.05;9.27;;;28.50;69.00;;;;;;5112686;28;20027;-83
2021/07/17 10:31:00;;;;;;;11.80;9.13;;;28.20;67.20;;;;;;5113345;28;20019;-83
2021/07/17 10:33:28;;;;;;;11.45;9.13;;;28.20;69.00;;;;;;5107302;28;20031;-82
2021/07/17 10:35:56;;;;;;;13.15;9.70;;;27.90;69.80;;;;;;5113399;28;20045;-81
2021/07/17 10:38:22;;;;;;;16.15;11.30;;;27.90;68.50;;;;;;5112364;28;20024;-82
2021/07/17 10:40:53;;;;;;;14.43;10.20;;;27.90;70.50;;;;;;5108270;28;20020;-84
2021/07/17 10:43:21;;;;;;;14.57;8.85;;;27.70;71.00;;;;;;5108324;28;20111;-83
2021/07/17 10:45:47;;;;;;;12.52;9.90;;;27.90;71.10;;;;;;5107992;28;20039;-83
2021/07/17 10:48:29;;;;;;;13.40;9.07;;;27.80;70.60;;;;;;5106287;28;20453;-82
2021/07/17 10:50:56;;;;;;;;;;;27.60;71.40;;;;;;5105578;28;20123;-81
2021/07/17 10:53:44;;;;;;;12.13;9.25;;;27.50;70.20;;;;;;5104464;28;19943;-82
2021/07/17 10:56:28;;;;;;;10.93;9.65;;;27.70;71.30;;;;;;5105811;28;20031;-83
2021/07/17 10:59:02;;;;;;;11.20;9.25;;;27.70;71.20;;;;;;5104623;28;20038;-83
2021/07/17 11:01:56;;;;;;;12.38;9.63;;;27.80;72.60;;;;;;5106081;28;20016;-83
2021/07/17 11:04:44;;;;;;;15.65;9.45;;;27.90;69.60;;;;;;5108463;28;20032;-82
2021/07/17 11:07:31;;;;;;;12.55;9.55;;;28.00;69.80;;;;;;5107362;28;20028;-82
2021/07/17 11:10:03;;;;;;;13.35;9.02;;;28.30;70.20;;;;;;5095884;28;20355;-84
2021/07/17 11:12:30;;;;;;;15.73;9.75;;;28.20;69.90;;;;;;5102047;28;20431;-82
2021/07/17 11:15:19;;;;;;;11.35;8.50;;;28.30;72.30;;;;;;5111147;28;20039;-82
2021/07/17 11:17:45;;;;;;;14.10;8.90;;;28.30;71.00;;;;;;5111309;28;20126;-82
2021/07/17 11:20:31;;;;;;;11.98;8.05;;;28.00;72.10;;;;;;5109347;28;20111;-82
2021/07/17 11:23:08;;;;;;;16.33;8.57;;;28.10;70.20;;;;;;5108110;28;20030;-81
2021/07/17 11:25:35;;;;;;;10.80;9.15;;;28.20;72.20;;;;;;5110343;28;20026;-82
2021/07/17 11:28:01;;;;;;;8.93;7.95;;;28.30;72.40;;;;;;5104347;28;20028;-82
2021/07/17 11:30:32;;;;;;;11.70;8.95;;;27.70;74.90;;;;;;5109285;28;20023;-82
2021/07/17 11:33:07;;;;;;;12.70;9.20;;;27.40;75.40;;;;;;5105590;28;20055;-82
2021/07/17 11:35:41;;;;;;;9.95;8.68;;;27.60;73.90;;;;;;5103858;28;20476;-82
2021/07/17 11:38:09;;;;;;;10.95;9.05;;;27.80;73.60;;;;;;5108666;28;20032;-80
2021/07/17 11:40:36;;;;;;;10.65;9.23;;;27.90;71.60;;;;;;5110535;28;20465;-82
2021/07/17 11:43:08;;;;;;;14.00;10.27;;;27.90;70.50;;;;;;5103733;28;20110;-81
2021/07/17 11:45:34;;;;;;;12.50;8.90;;;27.80;70.50;;;;;;5106295;28;20102;-83
2021/07/17 11:48:14;;;;;;;13.77;9.05;;;27.70;73.90;;;;;;5109666;28;20101;-82
2021/07/17 11:50:45;;;;;;;11.18;8.75;;;27.70;76.70;;;;;;5108261;28;20095;-82
2021/07/17 11:53:19;;;;;;;10.05;8.55;;;27.60;74.90;;;;;;5112975;28;20151;-82
2021/07/17 11:56:00;;;;;;;14.70;9.73;;;27.50;78.50;;;;;;5112676;28;20035;-81
2021/07/17 11:58:29;;;;;;;12.18;9.38;;;27.50;77.70;;;;;;5111632;28;20122;-81
2021/07/17 12:01:03;;;;;;;13.27;10.13;;;27.70;75.20;;;;;;5112304;28;20464;-82
2021/07/17 12:03:28;;;;;;;13.73;9.40;;;27.60;76.70;;;;;;5099416;28;20481;-83
2021/07/17 12:05:54;;;;;;;12.73;9.80;;;27.90;75.90;;;;;;5093964;28;20021;-83
2021/07/17 12:08:23;;;;;;;11.00;9.57;;;28.00;76.60;;;;;;5092321;28;20041;-81
2021/07/17 12:10:49;;;;;;;14.95;9.40;;;28.00;75.20;;;;;;5095132;28;20414;-82
2021/07/17 12:13:21;;;;;;;15.30;9.45;;;28.00;75.70;;;;;;5111632;27;20992;-83
2021/07/17 12:15:47;;;;;;;10.52;8.57;;;28.00;75.20;;;;;;5096141;28;20088;-82
2021/07/17 12:18:15;;;;;;;11.18;9.95;;;28.00;75.50;;;;;;5094069;28;20118;-83
2021/07/17 12:20:48;;;;;;;14.43;9.77;;;28.00;73.90;;;;;;5093318;28;20062;-83
2021/07/17 12:23:24;;;;;;;13.88;9.27;;;28.00;72.70;;;;;;5091808;28;20473;-82
2021/07/17 12:25:54;;;;;;;10.55;9.52;;;28.10;75.30;;;;;;5092564;28;20016;-85
2021/07/17 12:28:21;;;;;;;12.73;10.15;;;28.20;73.60;;;;;;5099125;28;20058;-84
2021/07/17 12:30:50;;;;;;;10.40;9.20;;;28.10;72.90;;;;;;5103497;28;20457;-83
2021/07/17 12:33:21;;;;;;;10.18;8.77;;;27.90;73.90;;;;;;5102949;28;20040;-83
2021/07/17 12:35:49;;;;;;;13.05;9.73;;;27.70;74.00;;;;;;5104735;28;20028;-82